Impacts METAR Board
IDs:

KEWR - Newark Intl, NJ, US

Updated at: 0700 UTC 07 Dec 2022
Potential Impact None Slight Moderate High
Time 06/19Z 06/20Z 06/21Z 06/22Z 06/23Z 07/00Z 07/01Z 07/02Z 07/03Z 07/04Z 07/05Z 07/06Z 07/07Z
Temp57 56 56 56 56 56 56 56 55 55 56 57 57
Dewpt52 52 52 52 53 53 53 53 53 53 54 55 55
Altim30.27 30.27 30.26 30.27 30.26 30.26 30.25 30.25 30.24 30.23 30.21 30.19 30.19
VIS8 5 8 2 9 3 3 2.5 2 3 5 5 6
CIG40 40 40 26 24 20 9 8 6 6 7 6 6
CoverOVCOVCOVCOVCOVCOVCOVCOVCOVCOVCOVCOVCOVC
FltCatVFRMVFRVFRIFRMVFRMVFRIFRIFRIFRIFRIFRIFRIFR
WX-RA-RA BR--+RA BR--RA BR-RA BRRA BR+RA BR-RA BR-RA BR-RA BR-RA BR
WDir140130120130140160140120130150160170160
WSpd7 7 4 5 7 7 7 6 4 6 7 6 7
WGst-- -- -- -- -- -- -- -- -- -- -- -- --
Raw hourly METARs
KEWR 061851Z 14007KT 8SM -RA FEW018 SCT028 OVC040 14/11 A3027 RMK AO2 SLP249 P0002 T01390111
KEWR 061951Z 13007KT 5SM -RA BR FEW018 SCT032 OVC040 13/11 A3027 RMK AO2 SLP249 P0001 T01330111
KEWR 062051Z 12004KT 8SM FEW018 SCT030 OVC040 13/11 A3026 RMK AO2 RAE38 SLP247 P0001 60004 T01330111 56005
KEWR 062151Z 13005KT 2SM +RA BR FEW014 BKN026 OVC035 13/11 A3027 RMK AO2 SFC VIS 3 RAB13 SLP251 P0004 T01330111 $
KEWR 062251Z 14007KT 9SM FEW012 BKN024 OVC035 13/12 A3026 RMK AO2 RAE48 SLP245 P0003 T01330117 $
KEWR 062351Z 16007KT 3SM RA BR FEW012 BKN020 OVC030 13/12 A3026 RMK AO2 SFC VIS 4 RAB05 SLP247 P0004 60015 T01330117 10144 20128 55004 $
KEWR 070059Z 14007KT 3SM -RA BR BKN009 OVC025 13/12 A3025 RMK AO2 SFC VIS 5 P0000 T01330117 $
KEWR 070203Z 12006KT 2 1/2SM RA BR BKN008 BKN014 OVC020 13/12 A3025 RMK AO2 SFC VIS 3 P0002 T01330117 $
KEWR 070251Z 13004KT 2SM R04R/4500VP6000FT +RA BR BKN006 OVC011 13/12 A3024 RMK AO2 SLP240 P0013 60022 T01280117 56006 $
KEWR 070351Z 15006KT 3SM -RA BR BKN006 OVC010 13/12 A3023 RMK AO2 SFC VIS 5 SLP236 P0020 T01280117 $
KEWR 070451Z 16007KT 5SM -RA BR BKN007 OVC011 13/12 A3021 RMK AO2 SLP230 P0002 T01330122 401440011 $
KEWR 070551Z 17006KT 5SM -RA BR BKN006 BKN011 OVC020 14/13 A3019 RMK AO2 SLP224 P0011 60055 T01390128 10139 20128 58016 $
KEWR 070651Z 16007KT 6SM -RA BR BKN006 OVC013 14/13 A3019 RMK AO2 SLP224 P0006 T01390128 $



Page loaded:  07:52 UTC  |   11:52 PM Pacific  |   12:52 AM Mountain  |   01:52 AM Central  |   02:52 AM Eastern

 

ADVISORIES

FORECASTS

FORECASTS

OBSERVATIONS

USER TOOLS

ABOUT US